Skip Navigation Links
NOAA logo - Click to go to the NOAA homepage
NOAA's National Weather Service
Alaska Aviation Weather Unit
  NWS logo - Click to go to the NWS homepage
Left Navbar Graphic     21 AKDT = 05 GMT

   
NOAA is celebrating 200 years of science, service, and stewardship. Visit the NOAA 200th celebration Web site to learn more.
USA.gov is the U.S. Government's official Web portal to all Federal, state and local government Web resources and services.
Facebook
NWS on Facebook

Important Change Regarding the AAWU Web Presence

 

Over the last several months, the AAWU has been working to navigate its webpages to a nationally supported server. Security, as well as other needs, have necessitated the change.  In the process, we have made an effort to enhance the functionality of our website, as well as some of our products. As of June 27, 2017, aawu.arh.noaa.gov will be discontinued. The new AAWU web address is weather.gov/aawu. It is now live and will run in-parallel with the old site until it is discontinued. Please send any feedback or questions regarding the new webpages to nws.ar.aawu.webauthors@noaa.gov.  Thank you for your patience during this time of transition.
AAWU Home :: Display TAF Add Bookmark
TAF CYZW 241738Z 2418/2501 18006KT P6SM SCT100 OVC150
    FM242000 17010KT P6SM BKN080 OVC120 TEMPO 2420/2501 P6SM -SHRA
     BKN050 OVC080
    RMK NXT FCST WILL BE ISSUED AT 251445Z=

METAR CYZW 242300Z 12003KT 060V230 10SM -RA OVC070 12/07 A3013 RMK AC8 SLP226= METAR CYZW 250000Z VRB02KT 20SM -SHRA OVC060 13/08 A3011 RMK SC8 SLP217 DENSITY ALT 2500FT= METAR CYZW 250100Z 21004KT 20SM -SHRA OVC055 12/07 A3009 RMK SC8 CLIMAT 15.4/7.5/0.2MM/LAST STFD OBS/NXT 251300Z SLP211 DENSITY ALT 2400FT=
 Alaska TAF Map

NOAA's National Weather Service
Alaska Aviation Weather Unit
6930 Sand Lake Road
Anchorage, AK 99502-1845
Disclaimer
Credits
Glossary
Privacy Policy
About Us
Career Opportunities
Contact AAWU Internet Services Site last modified: April, 17th 2012